Time,TemperatureF,DewpointF,PressureIn,WindDirection,WindDirectionDegrees,WindSpeedMPH,WindSpeedGustMPH,Humidity,HourlyPrecipIn,Conditions,Clouds,dailyrainin,SoftwareType,DateUTC
2013-10-15 00:00:00,52.8,49.0,30.23,WNW,301,0.0,0.0,87,0.00,,---,0.00,VWS V14.01,2013-10-15 04:00:00,
2013-10-15 00:10:00,53.1,49.0,30.23,WNW,301,0.0,0.0,86,0.00,,---,0.00,VWS V14.01,2013-10-15 04:10:00,
2013-10-15 00:20:00,53.2,49.1,30.22,WNW,301,0.0,0.0,86,0.00,,---,0.00,VWS V14.01,2013-10-15 04:20:00,
2013-10-15 00:30:00,53.3,49.2,30.21,WNW,301,0.0,0.0,86,0.00,,---,0.00,VWS V14.01,2013-10-15 04:30:00,
2013-10-15 00:40:00,53.3,49.5,30.21,WNW,301,0.0,0.0,87,0.00,,---,0.00,VWS V14.01,2013-10-15 04:40:00,
2013-10-15 00:50:00,53.3,48.9,30.21,WNW,301,0.0,0.0,85,0.00,,---,0.00,VWS V14.01,2013-10-15 04:50:00,
2013-10-15 01:00:00,53.5,49.1,30.20,WNW,301,0.0,0.0,85,0.00,,---,0.00,VWS V14.01,2013-10-15 05:00:00,
2013-10-15 01:10:00,53.5,49.1,30.20,WNW,301,0.0,0.0,85,0.00,,---,0.00,VWS V14.01,2013-10-15 05:10:00,
2013-10-15 01:20:00,53.5,49.1,30.19,WNW,301,0.0,0.0,85,0.00,,---,0.00,VWS V14.01,2013-10-15 05:20:00,
2013-10-15 01:30:00,53.6,49.5,30.19,WNW,301,0.0,0.0,86,0.00,,---,0.00,VWS V14.01,2013-10-15 05:30:00,
2013-10-15 01:40:00,53.5,49.4,30.19,WNW,301,0.0,0.0,86,0.00,,---,0.00,VWS V14.01,2013-10-15 05:40:00,
2013-10-15 01:50:00,53.5,49.1,30.18,WNW,301,0.0,0.0,85,0.00,,---,0.00,VWS V14.01,2013-10-15 05:50:00,
2013-10-15 02:00:00,53.5,48.5,30.18,WNW,301,0.0,0.0,83,0.00,,---,0.00,VWS V14.01,2013-10-15 06:00:00,
2013-10-15 02:10:00,53.6,46.9,30.18,WNW,301,0.0,0.0,78,0.00,,---,0.00,VWS V14.01,2013-10-15 06:10:00,
2013-10-15 02:20:00,53.9,47.2,30.18,WNW,301,0.0,0.0,78,0.00,,---,0.00,VWS V14.01,2013-10-15 06:20:00,
2013-10-15 02:30:00,54.1,47.4,30.18,WNW,301,0.0,0.0,78,0.00,,---,0.00,VWS V14.01,2013-10-15 06:30:00,
2013-10-15 02:40:00,54.1,47.4,30.18,WNW,301,0.0,0.0,78,0.00,,---,0.00,VWS V14.01,2013-10-15 06:40:00,
2013-10-15 02:50:00,54.2,48.2,30.18,WNW,301,0.0,0.0,80,0.00,,---,0.00,VWS V14.01,2013-10-15 06:50:00,
2013-10-15 03:00:00,54.2,47.5,30.17,WNW,301,0.0,0.0,78,0.00,,---,0.00,VWS V14.01,2013-10-15 07:00:00,
2013-10-15 03:10:00,54.4,49.3,30.17,WNW,301,0.0,0.0,83,0.00,,---,0.00,VWS V14.01,2013-10-15 07:10:00,
2013-10-15 03:20:00,54.2,49.2,30.16,WNW,301,0.0,0.0,83,0.00,,---,0.00,VWS V14.01,2013-10-15 07:20:00,
2013-10-15 03:30:00,54.1,49.4,30.16,WNW,301,0.0,0.0,84,0.00,,---,0.00,VWS V14.01,2013-10-15 07:30:00,
2013-10-15 03:40:00,53.9,48.9,30.16,WNW,301,0.0,0.0,83,0.00,,---,0.00,VWS V14.01,2013-10-15 07:40:00,
2013-10-15 03:50:00,53.8,48.8,30.15,WNW,301,0.0,0.0,83,0.00,,---,0.00,VWS V14.01,2013-10-15 07:50:00,
2013-10-15 04:00:00,53.9,49.2,30.14,WNW,301,0.0,0.0,84,0.00,,---,0.00,VWS V14.01,2013-10-15 08:00:00,
2013-10-15 04:10:00,54.1,49.7,30.14,WNW,301,0.0,0.0,85,0.00,,---,0.00,VWS V14.01,2013-10-15 08:10:00,
2013-10-15 04:20:00,54.4,50.0,30.15,WNW,301,0.0,0.0,85,0.00,,---,0.00,VWS V14.01,2013-10-15 08:20:00,
2013-10-15 04:30:00,54.5,50.1,30.14,WNW,301,0.0,0.0,85,0.00,,---,0.00,VWS V14.01,2013-10-15 08:30:00,
2013-10-15 04:40:00,55.0,50.6,30.14,WNW,301,0.0,0.0,85,0.00,,---,0.00,VWS V14.01,2013-10-15 08:40:00,
2013-10-15 04:50:00,55.4,51.0,30.14,WNW,301,0.0,0.0,85,0.00,,---,0.00,VWS V14.01,2013-10-15 08:50:00,
2013-10-15 05:00:00,55.7,51.3,30.14,WNW,301,0.0,0.0,85,0.00,,---,0.00,VWS V14.01,2013-10-15 09:00:00,
2013-10-15 05:10:00,56.0,51.6,30.14,WNW,301,0.0,0.0,85,0.00,,---,0.00,VWS V14.01,2013-10-15 09:10:00,
2013-10-15 05:20:00,56.0,51.6,30.15,WNW,301,0.0,0.0,85,0.00,,---,0.00,VWS V14.01,2013-10-15 09:20:00,
2013-10-15 05:30:00,56.2,51.8,30.14,WNW,301,0.0,0.0,85,0.00,,---,0.00,VWS V14.01,2013-10-15 09:30:00,
2013-10-15 05:40:00,56.3,51.9,30.14,WNW,301,0.0,0.0,85,0.00,,---,0.00,VWS V14.01,2013-10-15 09:40:00,
2013-10-15 05:50:00,56.5,52.4,30.13,WNW,301,0.0,0.0,86,0.00,,---,0.00,VWS V14.01,2013-10-15 09:50:00,
2013-10-15 06:00:00,56.5,52.4,30.13,WNW,301,0.0,0.0,86,0.00,,---,0.00,VWS V14.01,2013-10-15 10:00:00,
2013-10-15 06:10:00,56.5,52.7,30.13,WNW,301,0.0,0.0,87,0.00,,---,0.00,VWS V14.01,2013-10-15 10:10:00,
2013-10-15 06:20:00,56.5,52.7,30.13,WNW,301,0.0,0.0,87,0.00,,---,0.00,VWS V14.01,2013-10-15 10:20:00,
2013-10-15 06:30:00,56.5,53.0,30.13,WNW,301,0.0,0.0,88,0.00,,---,0.00,VWS V14.01,2013-10-15 10:30:00,
2013-10-15 06:40:00,56.5,53.0,30.13,WNW,301,0.0,0.0,88,0.00,,---,0.00,VWS V14.01,2013-10-15 10:40:00,
2013-10-15 06:50:00,56.5,53.3,30.13,WNW,301,0.0,0.0,89,0.00,,---,0.00,VWS V14.01,2013-10-15 10:50:00,
2013-10-15 07:00:00,56.6,53.4,30.12,WNW,301,0.0,0.0,89,0.00,,---,0.00,VWS V14.01,2013-10-15 11:00:00,
2013-10-15 07:10:00,56.9,53.7,30.12,WNW,301,0.0,0.0,89,0.00,,---,0.00,VWS V14.01,2013-10-15 11:10:00,
2013-10-15 07:20:00,57.0,54.1,30.11,WNW,301,0.0,0.0,90,0.00,,---,0.00,VWS V14.01,2013-10-15 11:20:00,
2013-10-15 07:30:00,57.2,54.3,30.12,WNW,301,0.0,0.0,90,0.00,,---,0.00,VWS V14.01,2013-10-15 11:30:00,
2013-10-15 07:40:00,57.0,54.1,30.12,WNW,301,0.0,0.0,90,0.00,,---,0.00,VWS V14.01,2013-10-15 11:40:00,
2013-10-15 07:50:00,57.0,54.1,30.12,WNW,301,0.0,0.0,90,0.00,,---,0.00,VWS V14.01,2013-10-15 11:50:00,
2013-10-15 08:00:00,56.9,54.3,30.11,WNW,301,0.0,0.0,91,0.00,,---,0.00,VWS V14.01,2013-10-15 12:00:00,
2013-10-15 08:10:00,56.9,54.3,30.11,WNW,301,0.0,0.0,91,0.00,,---,0.00,VWS V14.01,2013-10-15 12:10:00,
2013-10-15 08:20:00,57.0,54.4,30.12,WNW,301,0.0,0.0,91,0.00,,---,0.00,VWS V14.01,2013-10-15 12:20:00,
2013-10-15 08:30:00,57.0,54.4,30.12,WNW,301,0.0,0.0,91,0.00,,---,0.00,VWS V14.01,2013-10-15 12:30:00,
2013-10-15 08:40:00,57.2,54.9,30.12,WNW,301,0.0,0.0,92,0.00,,---,0.00,VWS V14.01,2013-10-15 12:40:00,
2013-10-15 08:50:00,57.5,55.2,30.11,WNW,301,0.0,0.0,92,0.00,,---,0.00,VWS V14.01,2013-10-15 12:50:00,
2013-10-15 09:00:00,57.8,55.5,30.12,WNW,301,0.0,0.0,92,0.00,,---,0.00,VWS V14.01,2013-10-15 13:00:00,